createdAt,value
2022-08-17T00:01:52.342Z,23.50
2022-08-17T00:04:20.501Z,23.30
2022-08-17T00:06:49.429Z,23.20
2022-08-17T00:09:18.681Z,23.20
2022-08-17T00:12:44.420Z,23.20
2022-08-17T00:14:36.349Z,23.20
2022-08-17T00:17:04.788Z,23.20
2022-08-17T00:19:33.076Z,23.20
2022-08-17T00:22:34.843Z,23.10
2022-08-17T00:24:51.552Z,23.20
2022-08-17T00:27:19.234Z,23.30
2022-08-17T00:29:46.322Z,23.30
2022-08-17T00:33:14.624Z,23.30
2022-08-17T00:35:05.411Z,23.30
2022-08-17T00:37:32.374Z,23.40
2022-08-17T00:39:59.497Z,23.40
2022-08-17T00:42:30.929Z,23.40
2022-08-17T00:44:58.793Z,23.40
2022-08-17T00:47:26.122Z,23.30
2022-08-17T00:49:53.442Z,23.30
2022-08-17T00:52:24.993Z,23.20
2022-08-17T00:54:54.986Z,23.10
2022-08-17T00:57:29.142Z,23.20
2022-08-17T01:00:11.244Z,23.10
2022-08-17T01:02:43.327Z,23.10
2022-08-17T01:05:25.424Z,23.20
2022-08-17T01:07:53.555Z,23.20
2022-08-17T01:10:59.690Z,23.20
2022-08-17T01:13:15.087Z,23.10
2022-08-17T01:15:48.677Z,23.00
2022-08-17T01:18:16.753Z,22.90
2022-08-17T01:20:53.768Z,22.90
2022-08-17T01:23:24.339Z,22.80
2022-08-17T01:25:58.650Z,22.80
2022-08-17T01:28:33.607Z,22.80
2022-08-17T01:31:15.453Z,22.90
2022-08-17T01:33:42.488Z,22.90
2022-08-17T01:36:10.354Z,23.00
2022-08-17T01:38:38.567Z,23.00
2022-08-17T01:41:12.635Z,23.00
2022-08-17T01:43:52.515Z,23.00
2022-08-17T01:46:29.822Z,23.10
2022-08-17T01:48:58.161Z,23.20
2022-08-17T01:51:33.118Z,23.20
2022-08-17T01:54:11.602Z,23.20
2022-08-17T01:56:42.646Z,23.20
2022-08-17T01:59:10.321Z,23.30
2022-08-17T02:01:38.091Z,23.20
2022-08-17T02:04:08.492Z,23.10
2022-08-17T02:06:45.191Z,23.10
2022-08-17T02:09:23.352Z,23.00
2022-08-17T02:11:54.526Z,22.90
2022-08-17T02:14:21.921Z,22.80
2022-08-17T02:16:49.192Z,22.90
2022-08-17T02:19:17.089Z,22.90
2022-08-17T02:21:46.143Z,23.00
2022-08-17T02:24:59.673Z,23.00
2022-08-17T02:27:10.498Z,23.00
2022-08-17T02:29:38.160Z,23.00
2022-08-17T02:32:05.629Z,22.90
2022-08-17T02:34:32.831Z,23.00
2022-08-17T02:36:59.990Z,22.90
2022-08-17T02:39:26.983Z,22.90
2022-08-17T02:42:01.818Z,22.80
2022-08-17T02:44:39.507Z,22.80
2022-08-17T02:47:08.598Z,22.80
2022-08-17T02:49:36.405Z,22.80
2022-08-17T02:52:06.723Z,22.90
2022-08-17T02:54:40.499Z,22.90
2022-08-17T02:57:09.676Z,22.80
2022-08-17T02:59:36.884Z,22.70
2022-08-17T03:02:06.437Z,22.70
2022-08-17T03:04:35.272Z,22.60
2022-08-17T03:07:02.809Z,22.60
2022-08-17T03:09:29.863Z,22.60
2022-08-17T03:12:08.364Z,22.70
2022-08-17T03:14:41.521Z,22.80
2022-08-17T03:17:10.679Z,22.90
2022-08-17T03:19:42.927Z,22.90
2022-08-17T03:22:36.956Z,22.90
2022-08-17T03:24:58.325Z,23.00
2022-08-17T03:27:25.378Z,22.90
2022-08-17T03:29:52.455Z,22.80
2022-08-17T03:32:20.874Z,22.60
2022-08-17T03:34:48.262Z,22.50
2022-08-17T03:37:16.509Z,22.40
2022-08-17T03:39:43.464Z,22.30
2022-08-17T03:42:31.974Z,22.30
2022-08-17T03:45:01.172Z,22.30
2022-08-17T03:47:47.158Z,22.40
2022-08-17T03:50:33.953Z,22.30
2022-08-17T03:53:21.962Z,22.30
2022-08-17T03:56:07.504Z,22.20
2022-08-17T03:58:36.965Z,22.20
2022-08-17T04:01:06.073Z,22.20
2022-08-17T04:03:33.262Z,22.20
2022-08-17T04:06:02.369Z,22.20
2022-08-17T04:08:30.130Z,22.30
2022-08-17T04:10:58.058Z,22.30
2022-08-17T04:13:25.675Z,22.30
2022-08-17T04:15:52.966Z,22.30
2022-08-17T04:18:20.383Z,22.10
2022-08-17T04:20:47.508Z,22.00
2022-08-17T04:23:17.348Z,22.10
2022-08-17T04:25:49.437Z,22.10
2022-08-17T04:28:18.031Z,22.10
2022-08-17T04:30:46.183Z,22.10
2022-08-17T04:33:18.742Z,22.20
2022-08-17T04:35:48.313Z,22.30
2022-08-17T04:38:18.196Z,22.30
2022-08-17T04:41:04.785Z,22.40
2022-08-17T04:43:32.925Z,22.30
2022-08-17T04:46:02.697Z,22.30
2022-08-17T04:48:36.617Z,22.30
2022-08-17T04:51:10.721Z,22.30
2022-08-17T04:53:39.279Z,22.30
2022-08-17T04:56:06.635Z,22.30
2022-08-17T04:58:33.761Z,22.40
2022-08-17T05:01:01.855Z,22.40
2022-08-17T05:03:29.133Z,22.50
2022-08-17T05:05:56.090Z,22.50
2022-08-17T05:08:23.205Z,22.60
2022-08-17T05:10:50.639Z,22.60
2022-08-17T05:13:22.161Z,22.70
2022-08-17T05:15:55.332Z,22.60
2022-08-17T05:18:24.435Z,22.70
2022-08-17T05:20:52.488Z,22.60
2022-08-17T05:23:21.128Z,22.70
2022-08-17T05:25:51.216Z,22.70
2022-08-17T05:28:24.260Z,22.80
2022-08-17T05:30:57.118Z,22.90
2022-08-17T05:33:39.561Z,23.00
2022-08-17T05:36:11.029Z,23.20
2022-08-17T05:38:58.896Z,23.40
2022-08-17T05:41:25.817Z,23.40
2022-08-17T05:43:56.238Z,23.40
2022-08-17T05:46:29.194Z,23.40
2022-08-17T05:49:04.265Z,23.40
2022-08-17T05:51:34.264Z,23.50
2022-08-17T05:54:28.547Z,23.50
2022-08-17T05:57:54.192Z,23.50
2022-08-17T06:00:42.419Z,23.70
2022-08-17T06:03:23.827Z,23.90
2022-08-17T06:06:05.725Z,24.00
2022-08-17T06:08:45.814Z,23.90
2022-08-17T06:11:27.280Z,24.00
2022-08-17T06:14:16.673Z,23.90
2022-08-17T06:16:51.553Z,24.10
2022-08-17T06:19:40.784Z,24.20
2022-08-17T06:22:13.885Z,24.30
2022-08-17T06:25:10.023Z,24.50
2022-08-17T06:27:53.360Z,24.60
2022-08-17T06:30:27.438Z,24.70
2022-08-17T06:33:02.474Z,24.90
2022-08-17T06:35:52.477Z,24.90
2022-08-17T06:38:41.372Z,25.00
2022-08-17T06:41:38.146Z,25.00
2022-08-17T06:44:51.153Z,25.30
2022-08-17T06:47:28.531Z,25.30
2022-08-17T06:50:08.157Z,25.40
2022-08-17T06:52:55.727Z,25.40
2022-08-17T06:55:46.737Z,25.60
2022-08-17T06:58:16.691Z,25.70
2022-08-17T07:00:47.548Z,25.80
2022-08-17T07:03:28.474Z,25.90
2022-08-17T07:06:06.884Z,25.90
2022-08-17T07:08:41.214Z,25.90
2022-08-17T07:11:15.640Z,26.00
2022-08-17T07:13:51.862Z,26.10
2022-08-17T07:16:32.279Z,26.20
2022-08-17T07:19:00.096Z,26.30
2022-08-17T07:21:55.870Z,26.10
2022-08-17T07:24:31.795Z,26.10
2022-08-17T07:27:20.975Z,26.20
2022-08-17T07:29:56.754Z,26.20
2022-08-17T07:32:29.293Z,26.30
2022-08-17T07:35:16.577Z,26.40
2022-08-17T07:37:53.257Z,26.40
2022-08-17T07:40:34.485Z,26.50
2022-08-17T07:43:06.978Z,26.50
2022-08-17T07:45:57.215Z,26.50
2022-08-17T07:48:26.850Z,26.60
2022-08-17T07:50:53.750Z,26.50
2022-08-17T07:53:26.198Z,26.60
2022-08-17T07:55:54.050Z,26.70
2022-08-17T07:58:24.126Z,26.70
2022-08-17T08:01:09.204Z,26.80
2022-08-17T08:03:42.782Z,26.80
2022-08-17T08:06:25.100Z,26.90
2022-08-17T08:08:55.373Z,26.90
2022-08-17T08:11:34.980Z,26.90
2022-08-17T08:14:34.137Z,26.90
2022-08-17T08:17:04.647Z,26.90
2022-08-17T08:19:33.388Z,27.00
2022-08-17T08:22:11.267Z,27.10
2022-08-17T08:25:07.628Z,27.20
2022-08-17T08:27:44.894Z,27.20
2022-08-17T08:30:21.720Z,27.20
2022-08-17T08:33:17.372Z,27.30
2022-08-17T08:35:54.601Z,27.30
2022-08-17T08:38:33.708Z,27.40
2022-08-17T08:41:03.658Z,27.50
2022-08-17T08:43:41.529Z,27.70
2022-08-17T08:46:27.466Z,27.70
2022-08-17T08:49:45.116Z,27.60
2022-08-17T08:52:23.697Z,27.70
2022-08-17T08:54:59.643Z,27.50
2022-08-17T08:57:57.630Z,27.60
2022-08-17T09:00:27.998Z,27.80
2022-08-17T09:03:43.787Z,27.90
2022-08-17T09:06:40.645Z,27.80
2022-08-17T09:09:26.668Z,27.60
2022-08-17T09:12:15.412Z,27.80
2022-08-17T09:14:57.720Z,27.80
2022-08-17T09:17:47.401Z,27.70
2022-08-17T09:20:48.091Z,27.80
2022-08-17T09:23:32.602Z,27.80
2022-08-17T09:26:09.351Z,28.00
2022-08-17T09:28:40.073Z,28.10
2022-08-17T09:31:16.008Z,27.90
2022-08-17T09:33:47.828Z,27.80
2022-08-17T09:36:26.073Z,27.90
2022-08-17T09:39:09.591Z,28.10
2022-08-17T09:42:06.883Z,28.30
2022-08-17T09:44:49.341Z,28.40
2022-08-17T09:47:32.667Z,28.70
2022-08-17T09:51:05.454Z,28.50
2022-08-17T09:53:12.165Z,28.60
2022-08-17T09:55:53.481Z,28.60
2022-08-17T09:59:01.631Z,28.80
2022-08-17T10:01:46.634Z,28.80
2022-08-17T10:04:30.702Z,29.10
2022-08-17T10:07:25.954Z,29.00
2022-08-17T10:10:08.663Z,29.00
2022-08-17T10:12:59.678Z,29.30
2022-08-17T10:15:47.045Z,29.40
2022-08-17T10:18:31.859Z,29.50
2022-08-17T10:21:21.820Z,29.60
2022-08-17T10:24:13.103Z,29.70
2022-08-17T10:26:55.921Z,29.60
2022-08-17T10:29:59.566Z,29.50
2022-08-17T10:32:40.889Z,29.60
2022-08-17T10:35:30.719Z,29.60
2022-08-17T10:38:37.237Z,29.80
2022-08-17T10:41:31.106Z,30.00
2022-08-17T10:44:40.391Z,30.30
2022-08-17T10:47:13.912Z,30.20
2022-08-17T10:49:53.673Z,30.20
2022-08-17T10:52:20.751Z,30.10
2022-08-17T10:54:58.223Z,29.90
2022-08-17T10:57:34.461Z,29.70
2022-08-17T11:00:17.680Z,29.90
2022-08-17T11:02:58.492Z,30.30
2022-08-17T11:05:52.387Z,30.60
2022-08-17T11:08:37.794Z,30.70
2022-08-17T11:11:10.816Z,30.80
2022-08-17T11:13:49.972Z,30.70
2022-08-17T11:16:38.607Z,30.80
2022-08-17T11:19:14.484Z,30.70
2022-08-17T11:22:10.334Z,30.80
2022-08-17T11:24:38.238Z,30.90
2022-08-17T11:27:22.295Z,30.80
2022-08-17T11:30:06.269Z,30.70
2022-08-17T11:32:52.893Z,30.70
2022-08-17T11:35:22.093Z,30.70
2022-08-17T11:37:56.533Z,30.70
2022-08-17T11:40:41.163Z,30.80
2022-08-17T11:43:40.901Z,30.90
2022-08-17T11:46:18.767Z,30.90
2022-08-17T11:49:13.445Z,31.10
2022-08-17T11:52:12.094Z,31.10
2022-08-17T11:54:48.175Z,31.10
2022-08-17T11:57:42.703Z,31.10
2022-08-17T12:00:44.750Z,31.20
2022-08-17T12:03:32.364Z,31.10
2022-08-17T12:06:30.509Z,31.30
2022-08-17T12:09:18.416Z,31.10
2022-08-17T12:12:11.517Z,31.10
2022-08-17T12:15:07.885Z,31.00
2022-08-17T12:17:39.279Z,30.90
2022-08-17T12:20:32.518Z,31.00
2022-08-17T12:23:09.567Z,30.80
2022-08-17T12:25:45.885Z,30.80
2022-08-17T12:28:35.402Z,31.00
2022-08-17T12:31:15.800Z,31.20
2022-08-17T12:33:47.255Z,31.10
2022-08-17T12:36:16.973Z,31.30
2022-08-17T12:39:13.756Z,31.30
2022-08-17T12:41:45.281Z,31.10
2022-08-17T12:44:12.378Z,31.30
2022-08-17T12:47:21.046Z,31.20
2022-08-17T12:49:52.142Z,31.10
2022-08-17T12:52:32.952Z,31.20
2022-08-17T12:54:59.984Z,31.30
2022-08-17T12:57:29.375Z,31.40
2022-08-17T13:00:07.973Z,31.40
2022-08-17T13:02:58.885Z,31.30
2022-08-17T13:05:37.548Z,31.40
2022-08-17T13:08:17.784Z,31.40
2022-08-17T13:11:01.772Z,31.40
2022-08-17T13:13:32.144Z,31.50
2022-08-17T13:16:02.324Z,31.70
2022-08-17T13:19:07.009Z,31.70
2022-08-17T13:21:35.112Z,31.90
2022-08-17T13:24:11.172Z,32.00
2022-08-17T13:26:45.980Z,31.90
2022-08-17T13:29:33.867Z,31.90
2022-08-17T13:32:09.068Z,31.80
2022-08-17T13:35:12.306Z,31.40
2022-08-17T13:37:35.971Z,31.20
2022-08-17T13:40:12.235Z,31.20
2022-08-17T13:42:52.058Z,31.10
2022-08-17T13:45:39.280Z,31.10
2022-08-17T13:48:11.922Z,31.10
2022-08-17T13:50:59.733Z,31.20
2022-08-17T13:53:36.927Z,31.30
2022-08-17T13:56:37.477Z,31.60
2022-08-17T13:59:08.063Z,31.70
2022-08-17T14:01:49.552Z,32.10
2022-08-17T14:04:22.916Z,32.70
2022-08-17T14:07:00.781Z,32.70
2022-08-17T14:09:52.657Z,32.70
2022-08-17T14:12:23.577Z,32.90
2022-08-17T14:14:51.215Z,33.10
2022-08-17T14:17:19.190Z,32.80
2022-08-17T14:19:46.090Z,32.70
2022-08-17T14:22:19.681Z,32.80
2022-08-17T14:24:46.693Z,33.10
2022-08-17T14:27:13.660Z,33.00
2022-08-17T14:33:24.855Z,32.70
2022-08-17T14:35:53.666Z,32.50
2022-08-17T14:38:21.266Z,32.40
2022-08-17T14:40:48.864Z,32.10
2022-08-17T14:43:16.030Z,31.90
2022-08-17T14:45:43.568Z,31.50
2022-08-17T14:48:10.694Z,31.70
2022-08-17T14:50:41.180Z,31.90
2022-08-17T14:53:11.410Z,32.00
2022-08-17T14:55:40.862Z,32.00
2022-08-17T14:58:09.193Z,32.00
2022-08-17T15:00:37.493Z,32.00
2022-08-17T15:03:05.002Z,32.30
2022-08-17T15:05:38.143Z,32.10
2022-08-17T15:08:06.485Z,32.30
2022-08-17T15:10:34.490Z,32.40
